METAR Data

Data at: 0156 UTC 21 Sep 2018

METAR for:KFOK (Westhampton/Gabreski, NY, US)
Text:KFOK 210153Z 11004KT 10SM SCT022 OVC050 18/14 A3029 RMK AO2 SLP257 T01830144
Temperature: 18.3°C ( 65°F)
Dewpoint: 14.4°C ( 58°F) [RH = 78%]
Pressure (altimeter):30.29 inches Hg (1025.8 mb) [Sea level pressure: 1025.7 mb]
Winds:from the ESE (110 degrees) at 5 MPH (4 knots; 2.1 m/s)
Visibility:10 or more sm (16+ km)
Ceiling:5000 feet AGL
Clouds: scattered clouds at 2200 feet AGL, overcast cloud deck at 5000 feet AGL